createdAt,value
2019-05-30T00:03:48.338Z,5.20
2019-05-30T00:08:51.934Z,5.80
2019-05-30T00:13:56.673Z,5.40
2019-05-30T00:19:00.899Z,5.60
2019-05-30T00:24:06.117Z,5.50
2019-05-30T00:29:09.797Z,5.37
2019-05-30T00:34:13.540Z,5.23
2019-05-30T00:39:17.135Z,5.77
2019-05-30T00:44:21.062Z,5.80
2019-05-30T00:49:25.293Z,5.37
2019-05-30T00:54:29.191Z,5.90
2019-05-30T00:59:32.780Z,6.03
2019-05-30T01:04:36.442Z,4.90
2019-05-30T01:09:40.495Z,5.77
2019-05-30T01:14:44.159Z,5.90
2019-05-30T01:19:47.906Z,5.27
2019-05-30T01:24:51.964Z,5.20
2019-05-30T01:29:55.900Z,5.27
2019-05-30T01:35:00.144Z,5.50
2019-05-30T01:40:04.375Z,5.33
2019-05-30T01:45:09.526Z,5.40
2019-05-30T01:50:14.458Z,5.93
2019-05-30T01:55:18.526Z,6.00
2019-05-30T02:00:25.198Z,5.80
2019-05-30T02:05:28.796Z,6.13
2019-05-30T02:10:32.462Z,6.07
2019-05-30T02:15:37.433Z,6.07
2019-05-30T02:20:41.523Z,5.70
2019-05-30T02:25:45.184Z,5.63
2019-05-30T02:30:49.208Z,5.83
2019-05-30T02:35:53.028Z,5.93
2019-05-30T02:40:56.775Z,6.13
2019-05-30T02:46:00.962Z,5.73
2019-05-30T02:51:05.579Z,6.30
2019-05-30T02:56:10.248Z,5.97
2019-05-30T03:01:14.967Z,6.03
2019-05-30T03:06:18.736Z,5.53
2019-05-30T03:11:22.387Z,6.17
2019-05-30T03:16:26.130Z,6.10
2019-05-30T03:21:30.106Z,5.87
2019-05-30T03:26:33.824Z,6.10
2019-05-30T03:31:39.156Z,6.10
2019-05-30T03:36:42.870Z,6.17
2019-05-30T03:41:46.537Z,5.93
2019-05-30T03:46:56.228Z,6.60
2019-05-30T03:52:04.884Z,6.90
2019-05-30T03:57:19.472Z,6.40
2019-05-30T04:02:56.039Z,7.10
2019-05-30T04:07:49.818Z,6.87
2019-05-30T04:13:15.347Z,6.53
2019-05-30T04:18:20.148Z,5.80
2019-05-30T04:23:24.114Z,6.10
2019-05-30T04:28:27.703Z,6.47
2019-05-30T04:33:33.567Z,6.87
2019-05-30T04:38:36.918Z,6.03
2019-05-30T04:43:40.561Z,5.67
2019-05-30T04:48:44.247Z,6.10
2019-05-30T04:53:48.188Z,5.97
2019-05-30T04:58:51.843Z,5.77
2019-05-30T05:03:55.663Z,6.03
2019-05-30T05:08:59.312Z,6.10
2019-05-30T05:14:02.901Z,6.00
2019-05-30T05:19:06.917Z,6.20
2019-05-30T05:24:10.509Z,6.23
2019-05-30T05:29:14.214Z,5.63
2019-05-30T05:34:18.579Z,5.70
2019-05-30T05:39:22.361Z,5.43
2019-05-30T05:44:25.891Z,5.80
2019-05-30T05:49:29.564Z,5.47
2019-05-30T05:54:33.228Z,5.00
2019-05-30T05:59:36.899Z,5.10
2019-05-30T06:04:40.621Z,6.70
2019-05-30T06:09:44.208Z,7.27
2019-05-30T06:14:47.876Z,6.97
2019-05-30T06:19:51.925Z,7.23
2019-05-30T06:24:55.615Z,6.67
2019-05-30T06:29:59.281Z,7.23
2019-05-30T06:35:03.188Z,6.90
2019-05-30T06:40:07.413Z,6.13
2019-05-30T06:45:11.644Z,6.20
2019-05-30T06:50:15.307Z,6.00
2019-05-30T06:55:19.273Z,6.00
2019-05-30T07:00:26.458Z,5.70
2019-05-30T07:05:32.092Z,5.47
2019-05-30T07:10:35.528Z,5.13
2019-05-30T07:15:39.155Z,5.33
2019-05-30T07:20:42.880Z,5.20
2019-05-30T07:25:46.472Z,4.97
2019-05-30T07:30:50.064Z,5.67
2019-05-30T07:35:53.792Z,5.07
2019-05-30T07:40:59.339Z,5.50
2019-05-30T07:46:03.604Z,5.43
2019-05-30T07:51:07.608Z,5.17
2019-05-30T07:56:11.261Z,5.23
2019-05-30T08:01:15.291Z,5.57
2019-05-30T08:06:18.953Z,5.17
2019-05-30T08:11:22.673Z,4.57
2019-05-30T08:16:27.084Z,4.47
2019-05-30T08:21:32.724Z,4.20
2019-05-30T08:26:36.512Z,4.80
2019-05-30T08:31:40.256Z,4.00
2019-05-30T08:36:44.229Z,4.27
2019-05-30T08:41:47.821Z,4.37
2019-05-30T08:46:51.492Z,4.27
2019-05-30T08:51:55.068Z,3.83
2019-05-30T08:56:58.659Z,3.87
2019-05-30T09:02:02.314Z,3.57
2019-05-30T09:07:05.970Z,3.00
2019-05-30T09:12:09.633Z,2.73
2019-05-30T09:17:13.517Z,2.57
2019-05-30T09:22:17.195Z,2.73
2019-05-30T09:27:20.915Z,2.87
2019-05-30T09:32:25.021Z,2.40
2019-05-30T09:37:29.090Z,2.13
2019-05-30T09:42:33.169Z,2.60
2019-05-30T09:47:36.849Z,2.40
2019-05-30T09:52:41.751Z,2.50
2019-05-30T09:57:45.961Z,2.20
2019-05-30T10:02:50.511Z,2.17
2019-05-30T10:07:54.775Z,2.00
2019-05-30T10:12:58.812Z,1.87
2019-05-30T10:18:02.964Z,1.80
2019-05-30T10:23:06.652Z,1.60
2019-05-30T10:28:10.309Z,1.93
2019-05-30T10:33:14.845Z,1.30
2019-05-30T10:38:20.138Z,1.87
2019-05-30T10:43:24.332Z,1.83
2019-05-30T10:48:27.913Z,1.50
2019-05-30T10:53:31.668Z,1.20
2019-05-30T10:58:35.696Z,1.37
2019-05-30T11:03:39.348Z,1.60
2019-05-30T11:08:46.215Z,2.00
2019-05-30T11:13:51.117Z,1.50
2019-05-30T11:18:56.199Z,1.40
2019-05-30T11:24:00.289Z,1.33
2019-05-30T11:29:04.411Z,1.57
2019-05-30T11:34:08.004Z,1.30
2019-05-30T11:39:11.769Z,1.40
2019-05-30T11:44:15.481Z,1.83
2019-05-30T11:49:19.586Z,1.17
2019-05-30T11:54:23.322Z,1.33
2019-05-30T11:59:26.977Z,1.30
2019-05-30T12:04:30.628Z,1.30
2019-05-30T12:09:34.683Z,1.20
2019-05-30T12:14:38.751Z,1.50
2019-05-30T12:19:42.409Z,1.30
2019-05-30T12:24:46.525Z,1.10
2019-05-30T12:29:54.004Z,1.60
2019-05-30T12:34:58.416Z,1.40
2019-05-30T12:40:03.193Z,1.20
2019-05-30T12:45:09.060Z,1.40
2019-05-30T12:50:16.561Z,1.30
2019-05-30T12:55:19.016Z,1.30
2019-05-30T13:00:25.679Z,1.50
2019-05-30T13:05:29.711Z,1.47
2019-05-30T13:10:33.437Z,1.60
2019-05-30T13:15:37.093Z,1.47
2019-05-30T13:20:40.813Z,1.60
2019-05-30T13:25:44.482Z,2.33
2019-05-30T13:30:48.642Z,2.63
2019-05-30T13:35:52.252Z,1.90
2019-05-30T13:40:55.905Z,1.50
2019-05-30T13:46:00.159Z,1.70
2019-05-30T13:51:04.859Z,1.63
2019-05-30T13:56:09.740Z,1.50
2019-05-30T14:01:14.141Z,1.50
2019-05-30T14:06:18.268Z,2.20
2019-05-30T14:11:21.857Z,1.80
2019-05-30T14:16:25.513Z,1.80
2019-05-30T14:21:30.732Z,1.87
2019-05-30T14:26:43.482Z,1.70
2019-05-30T14:31:47.368Z,1.63
2019-05-30T14:36:50.952Z,1.90
2019-05-30T14:41:54.806Z,1.90
2019-05-30T14:46:58.466Z,1.60
2019-05-30T14:52:02.462Z,1.80
2019-05-30T14:57:06.816Z,2.10
2019-05-30T15:02:11.295Z,1.80
2019-05-30T15:07:15.631Z,1.70
2019-05-30T15:12:19.352Z,2.10
2019-05-30T15:17:22.952Z,1.97
2019-05-30T15:22:26.857Z,2.13
2019-05-30T15:27:30.456Z,2.40
2019-05-30T15:32:34.308Z,3.10
2019-05-30T15:37:40.805Z,2.57
2019-05-30T15:42:43.721Z,2.40
2019-05-30T15:47:47.394Z,2.33
2019-05-30T15:52:51.049Z,2.80
2019-05-30T15:57:55.138Z,3.40
2019-05-30T16:02:58.794Z,2.70
2019-05-30T16:08:02.620Z,3.30
2019-05-30T16:13:06.225Z,3.23
2019-05-30T16:18:11.554Z,3.30
2019-05-30T16:23:16.578Z,3.03
2019-05-30T16:28:20.339Z,3.37
2019-05-30T16:33:23.909Z,2.80
2019-05-30T16:38:27.589Z,2.90
2019-05-30T16:43:31.200Z,2.70
2019-05-30T16:48:35.168Z,2.70
2019-05-30T16:53:38.807Z,3.20
2019-05-30T16:58:42.845Z,2.90
2019-05-30T17:03:46.566Z,19.30
2019-05-30T17:08:51.387Z,4.47
2019-05-30T17:13:55.042Z,3.87
2019-05-30T17:18:58.727Z,3.40
2019-05-30T17:24:02.674Z,3.83
2019-05-30T17:29:06.333Z,8.20
2019-05-30T17:34:10.430Z,3.33
2019-05-30T17:39:14.485Z,2.80
2019-05-30T17:44:19.075Z,2.67
2019-05-30T17:49:23.702Z,2.73
2019-05-30T17:54:28.085Z,2.50
2019-05-30T17:59:31.779Z,3.13
2019-05-30T18:04:35.429Z,2.60
2019-05-30T18:09:39.010Z,3.47
2019-05-30T18:14:42.676Z,2.70
2019-05-30T18:19:46.334Z,3.00
2019-05-30T18:24:49.909Z,2.77
2019-05-30T18:29:53.488Z,3.47
2019-05-30T18:34:57.567Z,2.80
2019-05-30T18:40:01.314Z,2.70
2019-05-30T18:45:07.783Z,3.07
2019-05-30T18:50:13.346Z,2.80
2019-05-30T18:55:17.371Z,3.17
2019-05-30T19:00:21.652Z,2.97
2019-05-30T19:05:26.540Z,3.10
2019-05-30T19:10:30.475Z,2.90
2019-05-30T19:15:34.374Z,3.40
2019-05-30T19:20:38.228Z,2.60
2019-05-30T19:25:42.393Z,3.30
2019-05-30T19:30:45.971Z,3.03
2019-05-30T19:35:49.851Z,2.70
2019-05-30T19:40:54.059Z,2.70
2019-05-30T19:45:57.745Z,2.83
2019-05-30T19:51:01.492Z,3.47
2019-05-30T19:56:06.268Z,2.80
2019-05-30T20:01:09.937Z,2.93
2019-05-30T20:06:13.688Z,2.87
2019-05-30T20:11:17.470Z,4.97
2019-05-30T20:16:21.176Z,3.37
2019-05-30T20:21:24.861Z,3.03
2019-05-30T20:26:28.836Z,3.30
2019-05-30T20:31:33.375Z,2.90
2019-05-30T20:36:38.474Z,3.33
2019-05-30T20:41:43.199Z,3.53
2019-05-30T20:46:47.354Z,3.57
2019-05-30T20:51:58.308Z,3.30
2019-05-30T20:57:02.456Z,3.23
2019-05-30T21:02:06.116Z,3.67
2019-05-30T21:07:10.941Z,3.43
2019-05-30T21:12:16.640Z,3.27
2019-05-30T21:17:22.076Z,4.00
2019-05-30T21:22:25.668Z,3.03
2019-05-30T21:27:29.584Z,3.30
2019-05-30T21:32:33.341Z,2.90
2019-05-30T21:37:37.672Z,3.50
2019-05-30T21:42:59.404Z,3.23
2019-05-30T21:47:47.384Z,3.30
2019-05-30T21:52:50.971Z,3.20
2019-05-30T21:57:54.556Z,3.53
2019-05-30T22:02:58.150Z,3.50
2019-05-30T22:08:01.727Z,3.57
2019-05-30T22:13:09.608Z,3.40
2019-05-30T22:18:10.649Z,3.90
2019-05-30T22:23:14.233Z,3.40
2019-05-30T22:28:17.964Z,3.57
2019-05-30T22:33:21.707Z,3.77
2019-05-30T22:38:25.287Z,3.47
2019-05-30T22:43:28.937Z,3.53
2019-05-30T22:48:32.903Z,3.60
2019-05-30T22:53:36.561Z,4.00
2019-05-30T22:58:40.549Z,3.60
2019-05-30T23:03:45.027Z,3.37
2019-05-30T23:08:48.827Z,4.30
2019-05-30T23:13:52.588Z,3.60
2019-05-30T23:18:56.851Z,4.30
2019-05-30T23:24:00.660Z,4.00
2019-05-30T23:29:04.749Z,3.60
2019-05-30T23:34:08.404Z,3.87
2019-05-30T23:39:12.080Z,4.20
2019-05-30T23:44:15.735Z,3.70
2019-05-30T23:49:19.453Z,4.00
2019-05-30T23:54:23.436Z,3.97
2019-05-30T23:59:27.515Z,3.73
